createdAt,value
2018-10-17T00:02:56.723Z,101212.00
2018-10-17T00:09:00.477Z,101208.00
2018-10-17T00:15:04.849Z,101206.00
2018-10-17T00:21:08.681Z,101202.00
2018-10-17T00:27:12.043Z,101202.00
2018-10-17T00:33:16.492Z,101198.00
2018-10-17T00:39:19.893Z,101145.00
2018-10-17T00:45:23.535Z,101190.00
2018-10-17T00:51:27.636Z,101180.00
2018-10-17T00:57:31.232Z,101189.00
2018-10-17T01:03:35.006Z,101182.00
2018-10-17T01:09:38.702Z,101172.00
2018-10-17T01:15:42.542Z,101167.00
2018-10-17T01:21:46.434Z,101168.00
2018-10-17T01:27:49.954Z,101164.00
2018-10-17T01:33:53.882Z,101167.00
2018-10-17T01:39:57.607Z,101158.00
2018-10-17T01:46:01.068Z,101166.00
2018-10-17T01:52:04.852Z,101171.00
2018-10-17T01:58:08.161Z,101164.00
2018-10-17T02:04:11.726Z,101171.00
2018-10-17T02:10:15.107Z,101169.00
2018-10-17T02:16:18.690Z,101165.00
2018-10-17T02:22:22.873Z,101166.00
2018-10-17T02:28:26.863Z,101162.00
2018-10-17T02:34:30.507Z,101175.00
2018-10-17T02:40:34.455Z,101164.00
2018-10-17T02:46:38.003Z,101168.00
2018-10-17T02:52:42.239Z,101166.00
2018-10-17T02:58:45.992Z,101165.00
2018-10-17T03:04:49.519Z,101175.00
2018-10-17T03:10:54.447Z,101178.00
2018-10-17T03:16:58.189Z,101180.00
2018-10-17T03:23:01.944Z,101181.00
2018-10-17T03:29:05.735Z,101183.00
2018-10-17T03:35:09.313Z,101181.00
2018-10-17T03:41:13.745Z,101180.00
2018-10-17T03:47:17.396Z,101183.00
2018-10-17T03:53:21.029Z,101185.00
2018-10-17T03:59:24.864Z,101189.00
2018-10-17T04:05:28.213Z,101192.00
2018-10-17T04:11:32.744Z,101191.00
2018-10-17T04:17:37.318Z,101185.00
2018-10-17T04:23:41.057Z,101185.00
2018-10-17T04:29:44.629Z,101197.00
2018-10-17T04:35:49.043Z,101189.00
2018-10-17T04:41:53.170Z,101184.00
2018-10-17T04:47:57.081Z,101185.00
2018-10-17T04:54:00.782Z,101184.00
2018-10-17T05:00:07.219Z,101186.00
2018-10-17T05:06:10.986Z,101199.00
2018-10-17T05:12:15.379Z,101202.00
2018-10-17T05:18:19.051Z,101204.00
2018-10-17T05:24:22.688Z,101219.00
2018-10-17T05:30:26.318Z,101214.00
2018-10-17T05:36:31.031Z,101215.00
2018-10-17T05:42:34.596Z,101219.00
2018-10-17T05:51:14.018Z,101226.00
2018-10-17T05:57:17.449Z,101227.00
2018-10-17T06:03:20.953Z,101215.00
2018-10-17T06:09:24.319Z,101228.00
2018-10-17T06:15:28.474Z,101226.00
2018-10-17T06:21:31.972Z,101225.00
2018-10-17T06:27:35.799Z,101227.00
2018-10-17T06:33:39.377Z,101241.00
2018-10-17T06:39:42.965Z,101229.00
2018-10-17T06:45:46.549Z,101245.00
2018-10-17T06:51:50.229Z,101240.00
2018-10-17T06:57:53.815Z,101235.00
2018-10-17T07:03:57.581Z,101241.00
2018-10-17T07:12:30.470Z,101234.00
2018-10-17T07:18:34.150Z,101245.00
2018-10-17T07:24:37.915Z,101243.00
2018-10-17T07:33:14.145Z,101250.00
2018-10-17T07:39:17.640Z,101240.00
2018-10-17T07:45:21.706Z,101241.00
2018-10-17T07:51:25.787Z,101238.00
2018-10-17T07:57:29.974Z,101238.00
2018-10-17T08:03:33.552Z,101238.00
2018-10-17T08:09:37.275Z,101244.00
2018-10-17T08:15:40.845Z,101250.00
2018-10-17T08:21:44.261Z,101261.00
2018-10-17T08:27:48.066Z,101258.00
2018-10-17T08:33:51.754Z,101255.00
2018-10-17T08:39:55.995Z,101261.00
2018-10-17T08:45:59.428Z,101263.00
2018-10-17T08:52:03.093Z,101264.00
2018-10-17T08:58:06.667Z,101265.00
2018-10-17T09:04:10.180Z,101269.00
2018-10-17T09:10:14.320Z,101280.00
2018-10-17T09:16:18.625Z,101289.00
2018-10-17T09:22:24.468Z,101287.00
2018-10-17T09:28:27.695Z,101287.00
2018-10-17T09:34:32.578Z,101298.00
2018-10-17T09:40:36.902Z,101294.00
2018-10-17T09:46:40.786Z,101298.00
2018-10-17T09:52:44.300Z,101284.00
2018-10-17T09:58:48.229Z,101290.00
2018-10-17T10:04:51.976Z,101289.00
2018-10-17T10:10:56.031Z,101285.00
2018-10-17T10:16:59.495Z,101282.00
2018-10-17T10:23:03.004Z,101282.00
2018-10-17T10:29:07.413Z,101276.00
2018-10-17T10:35:11.204Z,101273.00
2018-10-17T10:43:47.029Z,101269.00
2018-10-17T10:49:50.798Z,101269.00
2018-10-17T10:55:54.370Z,101268.00
2018-10-17T11:02:05.515Z,101259.00
2018-10-17T11:08:09.925Z,101256.00
2018-10-17T11:14:13.507Z,101252.00
2018-10-17T11:20:16.984Z,101245.00
2018-10-17T11:26:20.793Z,101238.00
2018-10-17T11:32:24.643Z,101246.00
2018-10-17T11:38:28.282Z,101243.00
2018-10-17T11:44:31.929Z,101232.00
2018-10-17T11:50:35.654Z,101221.00
2018-10-17T11:56:39.477Z,101220.00
2018-10-17T12:02:43.207Z,101218.00
2018-10-17T12:08:47.229Z,101217.00
2018-10-17T12:14:51.039Z,101209.00
2018-10-17T12:20:55.464Z,101206.00
2018-10-17T12:27:00.348Z,101209.00
2018-10-17T12:33:04.255Z,101205.00
2018-10-17T12:39:11.072Z,101203.00
2018-10-17T12:45:14.675Z,101205.00
2018-10-17T12:51:18.566Z,101205.00
2018-10-17T12:57:22.192Z,101193.00
2018-10-17T13:03:26.026Z,101191.00
2018-10-17T13:09:29.986Z,101193.00
2018-10-17T13:15:33.677Z,101196.00
2018-10-17T13:21:37.192Z,101185.00
2018-10-17T13:27:41.836Z,101185.00
2018-10-17T13:33:45.562Z,101183.00
2018-10-17T13:39:49.305Z,101182.00
2018-10-17T13:45:54.813Z,101172.00
2018-10-17T13:51:58.268Z,101169.00
2018-10-17T13:58:01.729Z,101161.00
2018-10-17T14:04:07.316Z,101179.00
2018-10-17T14:10:11.390Z,101177.00
2018-10-17T14:16:14.915Z,101181.00
2018-10-17T14:22:18.270Z,101181.00
2018-10-17T14:28:21.640Z,101184.00
2018-10-17T14:34:25.152Z,101179.00
2018-10-17T14:40:28.535Z,101186.00
2018-10-17T14:46:31.972Z,101174.00
2018-10-17T14:52:36.690Z,101182.00
2018-10-17T14:58:40.100Z,101183.00
2018-10-17T15:04:43.684Z,101176.00
2018-10-17T15:10:47.332Z,101183.00
2018-10-17T15:16:50.948Z,101186.00
2018-10-17T15:22:54.391Z,101179.00
2018-10-17T15:28:57.837Z,101186.00
2018-10-17T15:35:01.232Z,101198.00
2018-10-17T15:41:04.729Z,101201.00
2018-10-17T15:47:08.334Z,101200.00
2018-10-17T15:53:12.161Z,101197.00
2018-10-17T15:59:15.409Z,101199.00
2018-10-17T16:05:18.812Z,101211.00
2018-10-17T16:11:22.512Z,101208.00
2018-10-17T16:17:26.574Z,101217.00
2018-10-17T16:23:30.117Z,101226.00
2018-10-17T16:29:33.577Z,101221.00
2018-10-17T16:35:37.009Z,101232.00
2018-10-17T16:41:40.451Z,101244.00
2018-10-17T16:47:43.935Z,101251.00
2018-10-17T16:53:47.954Z,101256.00
2018-10-17T16:59:51.266Z,101250.00
2018-10-17T17:05:54.724Z,101267.00
2018-10-17T17:11:58.452Z,101270.00
2018-10-17T17:18:01.739Z,101276.00
2018-10-17T17:24:05.294Z,101280.00
2018-10-17T17:30:15.715Z,101285.00
2018-10-17T17:36:19.970Z,101293.00
2018-10-17T17:42:23.330Z,101300.00
2018-10-17T17:48:26.754Z,101303.00
2018-10-17T17:54:30.047Z,101312.00
2018-10-17T18:00:33.850Z,101318.00
2018-10-17T18:06:38.794Z,101320.00
2018-10-17T18:12:42.660Z,101332.00
2018-10-17T18:18:46.123Z,101329.00
2018-10-17T18:24:49.514Z,101328.00
2018-10-17T18:30:53.050Z,101337.00
2018-10-17T18:36:59.221Z,101339.00
2018-10-17T18:43:02.754Z,101351.00
2018-10-17T18:49:07.026Z,101356.00
2018-10-17T18:55:10.506Z,101358.00
2018-10-17T19:01:14.478Z,101363.00
2018-10-17T19:07:18.253Z,101365.00
2018-10-17T19:13:21.791Z,101342.00
2018-10-17T19:19:25.302Z,101373.00
2018-10-17T19:25:29.037Z,101375.00
2018-10-17T19:31:32.505Z,101383.00
2018-10-17T19:37:36.078Z,101384.00
2018-10-17T19:43:39.744Z,101383.00
2018-10-17T19:49:43.429Z,101387.00
2018-10-17T19:55:47.321Z,101393.00
2018-10-17T20:01:51.004Z,101394.00
2018-10-17T20:07:54.644Z,101391.00
2018-10-17T20:13:58.215Z,101400.00
2018-10-17T20:20:01.698Z,101402.00
2018-10-17T20:26:05.807Z,101408.00
2018-10-17T20:32:10.595Z,101401.00
2018-10-17T20:38:14.099Z,101397.00
2018-10-17T20:44:17.547Z,101406.00
2018-10-17T20:50:21.234Z,101406.00
2018-10-17T20:56:24.798Z,101407.00
2018-10-17T21:02:28.401Z,101406.00
2018-10-17T21:08:31.954Z,101414.00
2018-10-17T21:14:36.774Z,101421.00
2018-10-17T21:20:40.407Z,101425.00
2018-10-17T21:26:44.240Z,101425.00
2018-10-17T21:32:47.557Z,101428.00
2018-10-17T21:38:51.802Z,101438.00
2018-10-17T21:44:55.186Z,101445.00
2018-10-17T21:50:59.342Z,101439.00
2018-10-17T21:57:02.839Z,101434.00
2018-10-17T22:03:06.178Z,101445.00
2018-10-17T22:09:10.751Z,101436.00
2018-10-17T22:15:14.156Z,101446.00
2018-10-17T22:21:17.507Z,101440.00
2018-10-17T22:27:21.946Z,101438.00
2018-10-17T22:33:25.370Z,101440.00
2018-10-17T22:39:29.279Z,101434.00
2018-10-17T22:45:32.703Z,101441.00
2018-10-17T22:51:36.494Z,101445.00
2018-10-17T22:57:40.460Z,101453.00
2018-10-17T23:03:44.211Z,101451.00
2018-10-17T23:09:47.826Z,101459.00
2018-10-17T23:15:51.298Z,101456.00
2018-10-17T23:21:56.101Z,101463.00
2018-10-17T23:27:59.824Z,101462.00
2018-10-17T23:34:03.371Z,101462.00
2018-10-17T23:40:07.598Z,101454.00
2018-10-17T23:46:11.117Z,101463.00
2018-10-17T23:52:15.187Z,101465.00
2018-10-17T23:58:18.941Z,101459.00
